createdAt,value
2022-10-19T00:02:09.540Z,95.93
2022-10-19T00:07:12.724Z,96.00
2022-10-19T00:12:15.933Z,96.09
2022-10-19T00:17:19.654Z,96.20
2022-10-19T00:22:23.375Z,96.53
2022-10-19T00:27:26.490Z,96.77
2022-10-19T00:32:29.491Z,96.87
2022-10-19T00:37:32.694Z,96.85
2022-10-19T00:42:35.906Z,96.81
2022-10-19T00:47:39.966Z,96.64
2022-10-19T00:52:43.237Z,96.48
2022-10-19T00:57:46.271Z,96.28
2022-10-19T01:02:49.652Z,96.16
2022-10-19T01:07:52.962Z,96.11
2022-10-19T01:13:08.253Z,96.07
2022-10-19T01:18:22.627Z,95.99
2022-10-19T01:24:03.721Z,95.90
2022-10-19T01:29:11.033Z,95.87
2022-10-19T01:34:24.579Z,95.87
2022-10-19T01:39:46.387Z,95.86
2022-10-19T01:45:10.312Z,95.84
2022-10-19T01:50:20.059Z,95.78
2022-10-19T01:55:26.671Z,95.77
2022-10-19T02:00:32.941Z,95.86
2022-10-19T02:05:37.904Z,95.95
2022-10-19T02:10:44.499Z,96.00
2022-10-19T02:15:52.702Z,96.05
2022-10-19T02:20:56.423Z,96.15
2022-10-19T02:26:00.039Z,96.23
2022-10-19T02:31:04.095Z,96.26
2022-10-19T02:36:08.094Z,96.28
2022-10-19T02:41:17.318Z,96.32
2022-10-19T02:46:35.222Z,96.37
2022-10-19T02:51:41.184Z,96.41
2022-10-19T02:56:44.273Z,96.38
2022-10-19T03:01:47.381Z,96.35
2022-10-19T03:06:50.361Z,96.34
2022-10-19T03:11:55.352Z,96.31
2022-10-19T03:16:58.642Z,96.29
2022-10-19T03:22:02.156Z,96.31
2022-10-19T03:27:05.365Z,96.27
2022-10-19T03:32:08.469Z,96.24
2022-10-19T03:37:13.831Z,96.21
2022-10-19T03:42:16.937Z,96.23
2022-10-19T03:47:20.162Z,96.30
2022-10-19T03:52:23.248Z,96.36
2022-10-19T03:57:26.456Z,96.39
2022-10-19T04:02:29.666Z,96.42
2022-10-19T04:07:33.283Z,96.44
2022-10-19T04:12:36.695Z,96.44
2022-10-19T04:17:40.007Z,96.45
2022-10-19T04:22:43.214Z,96.50
2022-10-19T04:27:46.421Z,96.50
2022-10-19T04:32:49.627Z,96.50
2022-10-19T04:37:53.043Z,96.49
2022-10-19T04:42:56.045Z,96.47
2022-10-19T04:47:59.064Z,96.46
2022-10-19T04:53:02.461Z,96.46
2022-10-19T04:58:05.464Z,96.50
2022-10-19T05:03:08.878Z,96.51
2022-10-19T05:08:11.983Z,96.51
2022-10-19T05:13:15.191Z,96.51
2022-10-19T05:18:18.302Z,96.51
2022-10-19T05:23:21.562Z,96.48
2022-10-19T05:28:24.816Z,96.46
2022-10-19T05:33:28.433Z,96.48
2022-10-19T05:38:32.255Z,96.40
2022-10-19T05:43:35.360Z,96.30
2022-10-19T05:48:40.319Z,96.26
2022-10-19T05:53:44.725Z,96.23
2022-10-19T05:58:48.672Z,96.22
2022-10-19T06:03:54.134Z,96.22
2022-10-19T06:08:59.127Z,96.18
2022-10-19T06:14:05.844Z,96.16
2022-10-19T06:19:09.149Z,96.13
2022-10-19T06:24:13.324Z,96.11
2022-10-19T06:29:17.193Z,96.02
2022-10-19T06:34:20.677Z,95.92
2022-10-19T06:39:24.063Z,95.71
2022-10-19T06:44:27.683Z,95.16
2022-10-19T06:49:31.414Z,93.75
2022-10-19T06:54:34.608Z,91.41
2022-10-19T06:59:37.611Z,89.42
2022-10-19T07:04:40.823Z,88.98
2022-10-19T07:09:43.845Z,88.41
2022-10-19T07:14:48.262Z,88.10
2022-10-19T07:19:51.365Z,88.14
2022-10-19T07:24:54.988Z,88.05
2022-10-19T07:29:57.988Z,88.26
2022-10-19T07:35:00.990Z,87.16
2022-10-19T07:40:06.126Z,87.13
2022-10-19T07:45:09.771Z,84.21
2022-10-19T07:50:13.479Z,74.88
2022-10-19T07:55:17.302Z,68.94
2022-10-19T08:00:20.734Z,59.51
2022-10-19T08:05:23.845Z,48.09
2022-10-19T08:10:27.336Z,44.81
2022-10-19T08:15:30.852Z,37.54
2022-10-19T08:20:34.060Z,37.46
2022-10-19T08:25:37.780Z,34.35
2022-10-19T08:30:41.098Z,34.58
2022-10-19T08:35:44.504Z,33.76
2022-10-19T08:40:47.919Z,31.64
2022-10-19T08:46:00.750Z,29.39
2022-10-19T08:51:05.882Z,28.04
2022-10-19T08:56:49.283Z,27.20
2022-10-19T09:02:00.142Z,27.17
2022-10-19T09:07:34.551Z,27.40
2022-10-19T09:12:58.537Z,27.74
2022-10-19T09:18:03.112Z,29.81
2022-10-19T09:23:21.171Z,29.68
2022-10-19T09:28:45.062Z,29.79
2022-10-19T09:33:55.903Z,31.84
2022-10-19T09:38:59.158Z,28.61
2022-10-19T09:44:02.677Z,27.10
2022-10-19T09:49:06.399Z,27.99
2022-10-19T09:54:32.251Z,31.53
2022-10-19T09:59:37.446Z,37.12
2022-10-19T10:04:40.700Z,39.82
2022-10-19T10:09:45.233Z,43.96
2022-10-19T10:14:50.704Z,46.39
2022-10-19T10:19:59.947Z,47.76
2022-10-19T10:25:14.069Z,51.13
2022-10-19T10:30:18.862Z,51.23
2022-10-19T10:35:47.970Z,50.75
2022-10-19T10:41:20.570Z,51.28
2022-10-19T10:46:33.607Z,53.25
2022-10-19T10:51:45.113Z,55.12
2022-10-19T10:57:17.039Z,57.89
2022-10-19T11:02:52.660Z,59.41
2022-10-19T11:08:33.699Z,57.82
2022-10-19T11:13:59.390Z,57.59
2022-10-19T11:19:10.611Z,58.62
2022-10-19T11:24:50.964Z,59.13
2022-10-19T11:30:10.260Z,59.21
2022-10-19T11:35:16.534Z,59.42
2022-10-19T11:40:27.319Z,59.18
2022-10-19T11:45:42.716Z,59.96
2022-10-19T11:50:54.143Z,58.86
2022-10-19T11:56:07.348Z,58.51
2022-10-19T12:01:40.922Z,61.22
2022-10-19T12:06:56.672Z,65.39
2022-10-19T12:12:08.691Z,65.46
2022-10-19T12:17:20.649Z,66.86
2022-10-19T12:22:28.827Z,67.52
2022-10-19T12:27:38.677Z,66.44
2022-10-19T12:32:53.484Z,66.31
2022-10-19T12:38:00.361Z,65.34
2022-10-19T12:43:22.112Z,62.23
2022-10-19T12:48:25.632Z,60.01
2022-10-19T12:53:49.376Z,57.78
2022-10-19T12:59:01.789Z,57.91
2022-10-19T13:04:22.961Z,58.62
2022-10-19T13:09:46.251Z,59.85
2022-10-19T13:14:55.114Z,60.09
2022-10-19T13:20:14.253Z,60.85
2022-10-19T13:25:18.493Z,62.20
2022-10-19T13:30:38.701Z,61.82
2022-10-19T13:35:42.215Z,62.39
2022-10-19T13:40:48.395Z,62.26
2022-10-19T13:46:20.496Z,61.84
2022-10-19T13:51:29.931Z,61.57
2022-10-19T13:56:52.494Z,61.99
2022-10-19T14:02:09.648Z,61.81
2022-10-19T14:07:42.022Z,61.30
2022-10-19T14:12:46.559Z,61.28
2022-10-19T14:17:49.975Z,60.43
2022-10-19T14:22:53.589Z,60.40
2022-10-19T14:28:05.195Z,61.18
2022-10-19T14:33:14.814Z,61.13
2022-10-19T14:38:35.572Z,61.42
2022-10-19T14:43:38.884Z,61.65
2022-10-19T14:48:46.392Z,63.10
2022-10-19T14:53:54.440Z,63.62
2022-10-19T14:59:03.378Z,64.03
2022-10-19T15:04:07.282Z,64.75
2022-10-19T15:09:36.840Z,66.43
2022-10-19T15:14:42.036Z,67.66
2022-10-19T15:19:46.498Z,68.58
2022-10-19T15:25:20.324Z,68.62
2022-10-19T15:30:27.734Z,68.72
2022-10-19T15:35:36.743Z,69.64
2022-10-19T15:40:42.739Z,69.67
2022-10-19T15:45:45.951Z,70.83
2022-10-19T15:50:52.569Z,70.97
2022-10-19T15:55:55.878Z,72.99
2022-10-19T16:00:59.675Z,73.35
2022-10-19T16:06:03.191Z,74.78
2022-10-19T16:11:06.294Z,73.20
2022-10-19T16:16:12.982Z,73.31
2022-10-19T16:21:17.010Z,75.40
2022-10-19T16:26:21.938Z,76.37
2022-10-19T16:31:25.368Z,77.71
2022-10-19T16:36:28.654Z,78.16
2022-10-19T16:41:32.324Z,77.87
2022-10-19T16:46:36.838Z,77.66
2022-10-19T16:51:42.195Z,77.80
2022-10-19T16:56:47.964Z,78.93
2022-10-19T17:01:51.139Z,78.88
2022-10-19T17:06:54.689Z,79.41
2022-10-19T17:11:58.823Z,79.78
2022-10-19T17:17:02.439Z,80.11
2022-10-19T17:22:07.770Z,80.35
2022-10-19T17:27:11.207Z,80.64
2022-10-19T17:32:14.721Z,81.21
2022-10-19T17:37:18.031Z,80.19
2022-10-19T17:42:21.958Z,81.29
2022-10-19T17:47:26.906Z,81.44
2022-10-19T17:52:30.423Z,81.53
2022-10-19T17:57:36.628Z,81.65
2022-10-19T18:02:41.016Z,81.92
2022-10-19T18:07:45.292Z,82.65
2022-10-19T18:12:48.992Z,83.03
2022-10-19T18:17:53.260Z,83.42
2022-10-19T18:22:56.634Z,84.13
2022-10-19T18:28:01.160Z,84.50
2022-10-19T18:33:06.136Z,84.58
2022-10-19T18:38:10.352Z,84.30
2022-10-19T18:43:14.891Z,84.48
2022-10-19T18:48:19.911Z,84.85
2022-10-19T18:53:24.809Z,85.14
2022-10-19T18:58:33.692Z,85.25
2022-10-19T19:03:39.461Z,85.22
2022-10-19T19:08:46.213Z,85.04
2022-10-19T19:13:53.610Z,84.78
2022-10-19T19:18:58.136Z,84.92
2022-10-19T19:24:04.254Z,85.00
2022-10-19T19:29:09.272Z,85.23
2022-10-19T19:34:13.733Z,85.43
2022-10-19T19:39:20.158Z,85.04
2022-10-19T19:44:30.067Z,84.46
2022-10-19T19:49:35.201Z,84.50
2022-10-19T19:54:39.228Z,84.40
2022-10-19T19:59:42.605Z,84.49
2022-10-19T20:04:45.848Z,84.54
2022-10-19T20:09:49.368Z,84.46
2022-10-19T20:14:52.673Z,84.95
2022-10-19T20:19:56.398Z,85.64
2022-10-19T20:25:02.477Z,86.01
2022-10-19T20:30:09.092Z,86.40
2022-10-19T20:35:14.108Z,86.78
2022-10-19T20:40:18.860Z,86.89
2022-10-19T20:45:22.883Z,87.11
2022-10-19T20:50:27.222Z,87.17
2022-10-19T20:55:30.526Z,86.63
2022-10-19T21:00:33.835Z,86.61
2022-10-19T21:05:38.663Z,86.84
2022-10-19T21:10:41.990Z,87.04
2022-10-19T21:15:45.204Z,87.04
2022-10-19T21:20:48.613Z,86.52
2022-10-19T21:25:55.300Z,86.50
2022-10-19T21:31:03.449Z,86.07
2022-10-19T21:36:08.278Z,86.13
2022-10-19T21:41:20.810Z,84.83
2022-10-19T21:46:28.090Z,85.00
2022-10-19T21:51:35.304Z,85.39
2022-10-19T21:56:38.717Z,85.78
2022-10-19T22:01:42.475Z,86.30
2022-10-19T22:06:46.772Z,86.62
2022-10-19T22:11:50.285Z,86.66
2022-10-19T22:16:53.594Z,86.90
2022-10-19T22:21:56.906Z,86.76
2022-10-19T22:27:00.115Z,87.05
2022-10-19T22:32:03.628Z,87.44
2022-10-19T22:37:07.042Z,87.78
2022-10-19T22:42:10.146Z,87.85
2022-10-19T22:47:13.254Z,87.85
2022-10-19T22:52:16.973Z,87.86
2022-10-19T22:57:20.283Z,87.84
2022-10-19T23:02:24.208Z,87.84
2022-10-19T23:07:27.315Z,88.04
2022-10-19T23:12:30.522Z,88.21
2022-10-19T23:17:34.144Z,88.21
2022-10-19T23:22:37.657Z,88.36
2022-10-19T23:27:40.759Z,88.35
2022-10-19T23:32:44.069Z,88.30
2022-10-19T23:37:47.177Z,88.49
2022-10-19T23:42:50.283Z,88.59
2022-10-19T23:47:53.389Z,88.64
2022-10-19T23:52:57.046Z,88.99
2022-10-19T23:58:00.417Z,89.10
